createdAt,value
2023-02-19T00:01:47.734Z,85.86
2023-02-19T00:04:18.174Z,86.34
2023-02-19T00:06:47.287Z,85.70
2023-02-19T00:09:17.038Z,85.00
2023-02-19T00:11:46.296Z,84.80
2023-02-19T00:14:17.779Z,84.72
2023-02-19T00:16:45.597Z,84.93
2023-02-19T00:19:16.991Z,85.41
2023-02-19T00:21:44.745Z,85.32
2023-02-19T00:24:14.283Z,84.32
2023-02-19T00:26:43.096Z,84.64
2023-02-19T00:29:14.545Z,84.00
2023-02-19T00:31:42.365Z,83.82
2023-02-19T00:34:11.522Z,84.48
2023-02-19T00:36:41.381Z,84.83
2023-02-19T00:39:09.447Z,84.54
2023-02-19T00:41:37.235Z,85.32
2023-02-19T00:44:06.770Z,84.82
2023-02-19T00:46:36.604Z,84.84
2023-02-19T00:49:05.203Z,84.95
2023-02-19T00:51:34.799Z,85.39
2023-02-19T00:54:04.041Z,84.78
2023-02-19T00:56:31.943Z,84.91
2023-02-19T00:58:59.686Z,85.46
2023-02-19T01:01:27.530Z,84.54
2023-02-19T01:03:55.217Z,86.19
2023-02-19T01:06:23.166Z,85.35
2023-02-19T01:08:51.115Z,85.94
2023-02-19T01:11:21.180Z,85.35
2023-02-19T01:13:49.132Z,85.83
2023-02-19T01:16:18.900Z,85.64
2023-02-19T01:18:47.689Z,85.87
2023-02-19T01:21:17.865Z,86.34
2023-02-19T01:23:45.687Z,86.06
2023-02-19T01:26:16.017Z,86.97
2023-02-19T01:28:46.018Z,87.09
2023-02-19T01:31:15.675Z,85.84
2023-02-19T01:33:46.195Z,86.03
2023-02-19T01:36:14.640Z,85.77
2023-02-19T01:38:42.845Z,85.22
2023-02-19T01:41:13.372Z,85.36
2023-02-19T01:46:36.079Z,85.73
2023-02-19T01:49:07.309Z,87.76
2023-02-19T01:51:37.530Z,86.20
2023-02-19T01:54:08.520Z,87.66
2023-02-19T01:56:38.544Z,86.89
2023-02-19T01:59:08.450Z,86.15
2023-02-19T02:01:39.970Z,85.18
2023-02-19T02:04:10.847Z,86.01
2023-02-19T02:06:43.375Z,85.11
2023-02-19T02:09:28.832Z,86.39
2023-02-19T02:11:56.422Z,87.46
2023-02-19T02:14:26.991Z,87.89
2023-02-19T02:17:10.183Z,88.04
2023-02-19T02:20:08.709Z,88.88
2023-02-19T02:22:39.359Z,87.85
2023-02-19T02:25:28.403Z,87.37
2023-02-19T02:28:06.295Z,89.77
2023-02-19T02:30:43.109Z,89.33
2023-02-19T02:33:18.503Z,90.10
2023-02-19T02:35:51.446Z,91.71
2023-02-19T02:38:23.738Z,91.92
2023-02-19T02:40:52.268Z,92.67
2023-02-19T02:43:19.833Z,93.10
2023-02-19T02:45:49.134Z,91.96
2023-02-19T02:48:23.688Z,91.49
2023-02-19T02:50:54.561Z,89.83
2023-02-19T02:53:44.828Z,92.25
2023-02-19T02:56:14.492Z,92.27
2023-02-19T02:58:43.387Z,92.50
2023-02-19T03:01:35.450Z,92.53
2023-02-19T03:04:07.451Z,92.65
2023-02-19T03:06:37.216Z,92.28
2023-02-19T03:09:11.662Z,90.39
2023-02-19T03:12:00.432Z,88.84
2023-02-19T03:14:52.264Z,88.90
2023-02-19T03:17:44.326Z,89.55
2023-02-19T03:20:15.280Z,90.34
2023-02-19T03:22:46.038Z,88.48
2023-02-19T03:25:35.150Z,87.98
2023-02-19T03:28:06.294Z,87.45
2023-02-19T03:30:37.150Z,87.46
2023-02-19T03:33:09.668Z,89.26
2023-02-19T03:35:42.815Z,88.10
2023-02-19T03:38:18.619Z,87.25
2023-02-19T03:40:56.221Z,85.56
2023-02-19T03:43:31.987Z,86.88
2023-02-19T03:46:07.791Z,85.91
2023-02-19T03:48:39.150Z,86.46
2023-02-19T03:51:21.574Z,86.02
2023-02-19T03:53:57.848Z,86.83
2023-02-19T03:56:32.013Z,86.66
2023-02-19T03:59:03.095Z,86.85
2023-02-19T04:01:36.115Z,86.83
2023-02-19T04:04:14.175Z,87.39
2023-02-19T04:06:44.908Z,86.79
2023-02-19T04:09:15.845Z,87.44
2023-02-19T04:11:44.529Z,85.79
2023-02-19T04:14:18.790Z,85.81
2023-02-19T04:16:52.257Z,86.05
2023-02-19T04:19:24.568Z,86.12
2023-02-19T04:21:54.865Z,85.80
2023-02-19T04:24:27.400Z,87.65
2023-02-19T04:26:55.981Z,87.44
2023-02-19T04:29:23.612Z,87.11
2023-02-19T04:31:51.337Z,86.58
2023-02-19T04:34:18.948Z,86.02
2023-02-19T04:36:47.953Z,86.32
2023-02-19T04:39:15.685Z,86.12
2023-02-19T04:41:43.314Z,86.23
2023-02-19T04:44:10.931Z,86.19
2023-02-19T04:46:38.540Z,85.39
2023-02-19T04:49:06.189Z,85.51
2023-02-19T04:51:33.789Z,87.99
2023-02-19T04:54:02.832Z,88.52
2023-02-19T04:56:30.437Z,88.63
2023-02-19T04:58:58.559Z,88.60
2023-02-19T05:01:26.241Z,88.48
2023-02-19T05:03:54.073Z,88.09
2023-02-19T05:06:21.726Z,87.36
2023-02-19T05:08:49.374Z,87.51
2023-02-19T05:11:18.402Z,87.05
2023-02-19T05:13:45.987Z,87.30
2023-02-19T05:16:16.110Z,86.53
2023-02-19T05:18:46.203Z,86.53
2023-02-19T05:21:14.570Z,86.63
2023-02-19T05:23:42.691Z,86.91
2023-02-19T05:26:15.322Z,86.86
2023-02-19T05:28:44.258Z,87.00
2023-02-19T05:31:13.136Z,87.20
2023-02-19T05:33:42.880Z,86.19
2023-02-19T05:36:13.066Z,86.59
2023-02-19T05:38:41.610Z,86.86
2023-02-19T05:41:11.847Z,87.45
2023-02-19T05:43:39.986Z,87.84
2023-02-19T05:46:09.864Z,87.27
2023-02-19T05:48:37.838Z,87.62
2023-02-19T05:51:07.780Z,86.72
2023-02-19T05:53:36.248Z,86.34
2023-02-19T05:56:04.094Z,86.54
2023-02-19T05:58:31.803Z,86.33
2023-02-19T06:00:59.415Z,86.64
2023-02-19T06:03:28.682Z,87.46
2023-02-19T06:05:56.307Z,87.64
2023-02-19T06:08:23.906Z,87.54
2023-02-19T06:10:51.463Z,87.44
2023-02-19T06:13:19.052Z,87.29
2023-02-19T06:15:46.708Z,87.89
2023-02-19T06:18:14.312Z,88.64
2023-02-19T06:20:43.338Z,89.04
2023-02-19T06:23:10.926Z,88.81
2023-02-19T06:25:38.603Z,88.07
2023-02-19T06:28:06.580Z,88.78
2023-02-19T06:30:34.191Z,88.69
2023-02-19T06:33:01.795Z,88.54
2023-02-19T06:35:29.515Z,88.64
2023-02-19T06:37:58.445Z,87.70
2023-02-19T06:40:26.051Z,88.49
2023-02-19T06:42:53.634Z,88.95
2023-02-19T06:45:21.295Z,88.99
2023-02-19T06:47:48.867Z,87.22
2023-02-19T06:50:16.727Z,87.21
2023-02-19T06:52:44.301Z,86.04
2023-02-19T06:55:13.229Z,86.06
2023-02-19T06:57:40.830Z,85.75
2023-02-19T07:00:10.052Z,85.69
2023-02-19T07:02:37.659Z,85.33
2023-02-19T07:05:05.777Z,86.06
2023-02-19T07:07:33.392Z,85.41
2023-02-19T07:10:00.960Z,86.66
2023-02-19T07:12:29.920Z,86.61
2023-02-19T07:14:57.492Z,85.98
2023-02-19T07:17:25.065Z,86.02
2023-02-19T07:19:52.656Z,84.51
2023-02-19T07:22:20.234Z,85.87
2023-02-19T07:24:48.063Z,85.78
2023-02-19T07:27:15.721Z,83.93
2023-02-19T07:29:44.670Z,84.99
2023-02-19T07:32:12.295Z,83.68
2023-02-19T07:34:39.950Z,82.69
2023-02-19T07:37:07.527Z,81.45
2023-02-19T07:39:35.177Z,80.68
2023-02-19T07:42:02.750Z,80.72
2023-02-19T07:44:30.357Z,79.74
2023-02-19T07:46:59.295Z,81.79
2023-02-19T07:49:26.953Z,79.70
2023-02-19T07:51:54.536Z,79.04
2023-02-19T07:54:22.116Z,79.71
2023-02-19T07:56:49.797Z,78.55
2023-02-19T07:59:19.391Z,77.51
2023-02-19T08:02:04.665Z,80.31
2023-02-19T08:04:33.601Z,81.50
2023-02-19T08:07:01.214Z,79.91
2023-02-19T08:09:28.791Z,79.82
2023-02-19T08:12:14.061Z,71.50
2023-02-19T08:14:41.642Z,66.83
2023-02-19T08:17:09.277Z,62.96
2023-02-19T08:19:38.349Z,59.72
2023-02-19T08:22:05.961Z,57.83
2023-02-19T08:24:33.873Z,54.84
2023-02-19T08:27:01.453Z,52.40
2023-02-19T08:29:29.038Z,47.30
2023-02-19T08:31:56.639Z,47.53
2023-02-19T08:34:24.253Z,48.27
2023-02-19T08:36:53.179Z,47.74
2023-02-19T08:39:21.176Z,47.10
2023-02-19T08:41:48.951Z,48.79
2023-02-19T08:44:16.562Z,46.83
2023-02-19T08:46:44.131Z,44.62
2023-02-19T08:49:11.723Z,46.74
2023-02-19T08:51:39.391Z,44.57
2023-02-19T08:54:08.371Z,43.64
2023-02-19T08:56:35.979Z,46.48
2023-02-19T08:59:03.587Z,45.27
2023-02-19T09:01:31.251Z,46.36
2023-02-19T09:03:58.979Z,46.49
2023-02-19T09:06:26.663Z,46.35
2023-02-19T09:08:54.365Z,50.82
2023-02-19T09:11:23.372Z,54.88
2023-02-19T09:13:51.016Z,62.21
2023-02-19T09:16:18.667Z,65.77
2023-02-19T09:18:46.725Z,67.52
2023-02-19T09:21:14.382Z,68.95
2023-02-19T09:23:41.954Z,73.57
2023-02-19T09:26:11.438Z,71.42
2023-02-19T09:28:41.861Z,69.52
2023-02-19T09:31:12.124Z,71.98
2023-02-19T09:33:43.419Z,73.26
2023-02-19T09:36:11.770Z,74.17
2023-02-19T09:38:40.514Z,74.33
2023-02-19T09:41:11.209Z,77.49
2023-02-19T09:43:40.386Z,78.33
2023-02-19T09:46:22.163Z,76.71
2023-02-19T09:48:49.974Z,81.12
2023-02-19T09:51:18.226Z,78.97
2023-02-19T09:53:49.956Z,78.36
2023-02-19T09:56:18.661Z,76.66
2023-02-19T09:58:50.761Z,76.13
2023-02-19T10:01:19.502Z,77.48
2023-02-19T10:03:49.546Z,77.47
2023-02-19T10:06:21.731Z,78.91
2023-02-19T10:08:51.304Z,81.62
2023-02-19T10:11:19.878Z,83.34
2023-02-19T10:13:52.418Z,83.78
2023-02-19T10:16:23.582Z,81.83
2023-02-19T10:18:51.444Z,81.33
2023-02-19T10:21:21.502Z,80.85
2023-02-19T10:23:53.813Z,81.47
2023-02-19T10:26:21.414Z,82.83
2023-02-19T10:28:50.597Z,82.39
2023-02-19T10:31:21.015Z,81.28
2023-02-19T10:33:51.325Z,78.15
2023-02-19T10:36:29.873Z,76.66
2023-02-19T10:39:00.680Z,77.64
2023-02-19T10:41:29.479Z,74.14
2023-02-19T10:44:04.631Z,73.94
2023-02-19T10:46:36.000Z,73.35
2023-02-19T10:49:06.866Z,71.76
2023-02-19T10:51:37.273Z,72.99
2023-02-19T10:54:07.521Z,71.50
2023-02-19T10:56:37.494Z,72.30
2023-02-19T10:59:25.448Z,71.30
2023-02-19T11:01:58.483Z,71.84
2023-02-19T11:04:33.901Z,72.67
2023-02-19T11:07:09.404Z,71.76
2023-02-19T11:09:40.399Z,71.43
2023-02-19T11:12:10.188Z,71.12
2023-02-19T11:14:43.412Z,69.87
2023-02-19T11:17:23.929Z,69.61
2023-02-19T11:19:54.375Z,69.53
2023-02-19T11:22:31.373Z,68.07
2023-02-19T11:25:05.971Z,67.83
2023-02-19T11:27:34.283Z,68.49
2023-02-19T11:30:41.184Z,66.66
2023-02-19T11:33:23.323Z,66.67
2023-02-19T11:35:53.451Z,66.98
2023-02-19T11:38:21.607Z,66.95
2023-02-19T11:40:55.742Z,67.46
2023-02-19T11:43:41.214Z,67.98
2023-02-19T11:46:18.916Z,69.21
2023-02-19T11:48:55.769Z,71.27
2023-02-19T11:51:36.284Z,71.31
2023-02-19T11:54:16.462Z,69.77
2023-02-19T11:56:45.916Z,69.83
2023-02-19T11:59:21.623Z,69.03
2023-02-19T12:02:20.185Z,69.50
2023-02-19T12:05:08.126Z,69.69
2023-02-19T12:08:17.162Z,68.33
2023-02-19T12:10:58.321Z,68.84
2023-02-19T12:13:40.484Z,69.95
2023-02-19T12:16:16.884Z,69.49
2023-02-19T12:19:04.005Z,69.18
2023-02-19T12:21:45.299Z,68.84
2023-02-19T12:24:32.942Z,69.00
2023-02-19T12:27:13.368Z,70.82
2023-02-19T12:29:56.275Z,71.42
2023-02-19T12:32:44.611Z,70.34
2023-02-19T12:35:27.596Z,69.49
2023-02-19T12:38:07.472Z,67.20
2023-02-19T12:40:45.628Z,67.48
2023-02-19T12:43:18.732Z,66.92
2023-02-19T12:45:50.548Z,65.80
2023-02-19T12:48:26.017Z,65.90
2023-02-19T12:50:59.743Z,65.78
2023-02-19T12:53:38.847Z,65.36
2023-02-19T12:56:13.713Z,65.13
2023-02-19T12:58:45.715Z,66.39
2023-02-19T13:01:20.005Z,66.60
2023-02-19T13:03:53.699Z,65.71
2023-02-19T13:06:31.916Z,66.39
2023-02-19T13:09:06.846Z,66.10
2023-02-19T13:11:39.565Z,64.93
2023-02-19T13:14:17.876Z,63.05
2023-02-19T13:16:49.901Z,62.11
2023-02-19T13:19:17.754Z,63.20
2023-02-19T13:22:09.933Z,63.22
2023-02-19T13:24:41.776Z,63.98
2023-02-19T13:27:31.973Z,64.32
2023-02-19T13:30:11.335Z,65.34
2023-02-19T13:32:54.665Z,65.25
2023-02-19T13:35:51.176Z,65.45
2023-02-19T13:38:20.648Z,64.78
2023-02-19T13:40:55.586Z,64.38
2023-02-19T13:43:27.648Z,61.93
2023-02-19T13:45:58.518Z,61.83
2023-02-19T13:48:28.558Z,62.12
2023-02-19T13:51:29.557Z,64.27
2023-02-19T13:54:02.260Z,63.47
2023-02-19T13:56:41.550Z,63.49
2023-02-19T13:59:36.929Z,64.33
2023-02-19T14:02:17.686Z,63.59
2023-02-19T14:04:51.805Z,62.19
2023-02-19T14:07:45.140Z,62.28
2023-02-19T14:10:35.538Z,63.06
2023-02-19T14:13:03.130Z,62.35
2023-02-19T14:15:44.906Z,62.17
2023-02-19T14:18:45.172Z,63.18
2023-02-19T14:21:19.388Z,64.29
2023-02-19T14:23:53.193Z,64.77
2023-02-19T14:26:22.761Z,65.42
2023-02-19T14:28:52.790Z,66.21
2023-02-19T14:31:27.465Z,65.47
2023-02-19T14:33:57.132Z,64.34
2023-02-19T14:36:34.990Z,64.53
2023-02-19T14:39:06.434Z,63.39
2023-02-19T14:41:39.785Z,64.41
2023-02-19T14:44:12.950Z,65.17
2023-02-19T14:46:48.980Z,64.42
2023-02-19T14:49:25.311Z,65.90
2023-02-19T14:51:56.453Z,65.36
2023-02-19T14:54:38.764Z,65.48
2023-02-19T14:57:16.198Z,65.84
2023-02-19T14:59:54.069Z,65.86
2023-02-19T15:02:23.895Z,65.72
2023-02-19T15:04:51.557Z,65.95
2023-02-19T15:07:23.380Z,66.59
2023-02-19T15:09:54.470Z,66.40
2023-02-19T15:12:26.242Z,66.22
2023-02-19T15:14:56.640Z,66.22
2023-02-19T15:17:27.845Z,65.40
2023-02-19T15:19:56.679Z,65.86
2023-02-19T15:22:28.184Z,67.09
2023-02-19T15:24:55.912Z,67.12
2023-02-19T15:27:25.989Z,66.74
2023-02-19T15:29:54.623Z,67.14
2023-02-19T15:32:26.267Z,67.36
2023-02-19T15:34:58.560Z,67.01
2023-02-19T15:37:27.838Z,66.12
2023-02-19T15:39:57.142Z,67.94
2023-02-19T15:42:29.382Z,66.90
2023-02-19T15:45:01.939Z,65.98
2023-02-19T15:47:35.008Z,67.62
2023-02-19T15:50:09.022Z,67.44
2023-02-19T15:52:46.528Z,67.21
2023-02-19T15:55:30.712Z,67.05
2023-02-19T15:58:08.516Z,66.95
2023-02-19T16:00:42.552Z,67.83
2023-02-19T16:03:17.730Z,68.63
2023-02-19T16:05:45.724Z,67.77
2023-02-19T16:08:21.346Z,67.44
2023-02-19T16:10:57.088Z,65.88
2023-02-19T16:13:28.335Z,66.71
2023-02-19T16:16:03.408Z,67.71
2023-02-19T16:18:31.819Z,67.18
2023-02-19T16:20:59.952Z,67.31
2023-02-19T16:23:27.685Z,67.40
2023-02-19T16:26:00.962Z,68.14
2023-02-19T16:28:34.924Z,67.95
2023-02-19T16:31:05.168Z,68.93
2023-02-19T16:33:36.735Z,69.70
2023-02-19T16:36:27.256Z,69.21
2023-02-19T16:39:24.597Z,69.25
2023-02-19T16:42:22.231Z,69.68
2023-02-19T16:44:51.196Z,69.25
2023-02-19T16:47:32.798Z,68.84
2023-02-19T16:50:03.453Z,70.03
2023-02-19T16:52:31.879Z,70.12
2023-02-19T16:54:59.548Z,69.70
2023-02-19T16:57:27.180Z,69.73
2023-02-19T16:59:56.209Z,70.77
2023-02-19T17:02:25.558Z,71.38
2023-02-19T17:04:55.759Z,71.19
2023-02-19T17:07:24.011Z,71.38
2023-02-19T17:09:51.652Z,70.60
2023-02-19T17:12:20.112Z,71.63
2023-02-19T17:14:47.747Z,70.59
2023-02-19T17:17:16.693Z,70.50
2023-02-19T17:19:44.280Z,70.93
2023-02-19T17:22:16.672Z,71.49
2023-02-19T17:24:44.297Z,72.61
2023-02-19T17:27:13.023Z,73.18
2023-02-19T17:29:41.124Z,72.84
2023-02-19T17:32:08.870Z,74.61
2023-02-19T17:34:37.912Z,74.51
2023-02-19T17:37:05.512Z,72.96
2023-02-19T17:39:33.098Z,71.62
2023-02-19T17:42:00.681Z,71.59
2023-02-19T17:44:28.286Z,72.38
2023-02-19T17:46:55.874Z,71.44
2023-02-19T17:49:23.511Z,71.96
2023-02-19T17:51:52.444Z,71.03
2023-02-19T17:54:20.293Z,73.66
2023-02-19T17:56:47.861Z,72.94
2023-02-19T17:59:17.405Z,73.11
2023-02-19T18:01:46.054Z,73.30
2023-02-19T18:04:13.832Z,72.29
2023-02-19T18:06:42.861Z,72.35
2023-02-19T18:09:15.137Z,73.64
2023-02-19T18:11:45.521Z,73.54
2023-02-19T18:14:13.160Z,73.49
2023-02-19T18:16:48.725Z,72.78
2023-02-19T18:19:17.422Z,72.20
2023-02-19T18:21:45.040Z,72.43
2023-02-19T18:24:13.978Z,72.25
2023-02-19T18:26:42.118Z,73.73
2023-02-19T18:29:09.745Z,74.50
2023-02-19T18:31:37.952Z,73.42
2023-02-19T18:34:05.741Z,75.36
2023-02-19T18:36:34.043Z,74.52
2023-02-19T18:39:01.730Z,75.45
2023-02-19T18:41:30.675Z,73.97
2023-02-19T18:43:59.695Z,73.96
2023-02-19T18:46:27.341Z,74.94
2023-02-19T18:48:55.003Z,74.29
2023-02-19T18:51:23.510Z,73.67
2023-02-19T18:53:51.350Z,74.28
2023-02-19T18:56:19.278Z,75.24
2023-02-19T18:58:50.381Z,76.11
2023-02-19T19:01:18.469Z,74.96
2023-02-19T19:03:46.068Z,75.43
2023-02-19T19:06:13.757Z,74.95
2023-02-19T19:08:41.394Z,75.86
2023-02-19T19:11:09.110Z,75.27
2023-02-19T19:13:36.826Z,75.84
2023-02-19T19:16:06.259Z,76.67
2023-02-19T19:18:38.057Z,76.58
2023-02-19T19:21:06.148Z,76.35
2023-02-19T19:23:33.800Z,76.42
2023-02-19T19:26:01.401Z,77.35
2023-02-19T19:28:31.532Z,76.03
2023-02-19T19:30:59.867Z,76.90
2023-02-19T19:33:29.108Z,79.12
2023-02-19T19:35:56.759Z,78.43
2023-02-19T19:38:24.371Z,77.25
2023-02-19T19:40:51.990Z,77.64
2023-02-19T19:43:19.643Z,80.51
2023-02-19T19:45:47.584Z,78.79
2023-02-19T19:48:15.200Z,78.50
2023-02-19T19:50:44.135Z,80.71
2023-02-19T19:53:11.797Z,80.16
2023-02-19T19:55:39.411Z,79.26
2023-02-19T19:58:07.072Z,79.45
2023-02-19T20:00:34.790Z,79.16
2023-02-19T20:03:03.119Z,79.74
2023-02-19T20:05:30.766Z,80.16
2023-02-19T20:07:59.834Z,79.34
2023-02-19T20:10:27.458Z,81.28
2023-02-19T20:12:55.149Z,80.89
2023-02-19T20:15:23.999Z,80.60
2023-02-19T20:17:51.667Z,80.72
2023-02-19T20:20:20.263Z,82.07
2023-02-19T20:22:47.937Z,81.15
2023-02-19T20:25:17.396Z,82.24
2023-02-19T20:27:45.018Z,81.69
2023-02-19T20:30:15.009Z,80.63
2023-02-19T20:32:42.768Z,81.33
2023-02-19T20:35:10.488Z,82.93
2023-02-19T20:37:39.018Z,82.76
2023-02-19T20:40:08.669Z,82.20
2023-02-19T20:42:37.583Z,82.84
2023-02-19T20:45:05.563Z,81.74
2023-02-19T20:47:33.202Z,81.22
2023-02-19T20:50:00.801Z,82.21
2023-02-19T20:52:28.385Z,82.90
2023-02-19T20:54:57.242Z,84.02
2023-02-19T20:57:25.149Z,84.00
2023-02-19T20:59:54.131Z,82.29
2023-02-19T21:02:24.470Z,83.94
2023-02-19T21:04:52.158Z,83.25
2023-02-19T21:07:19.951Z,82.84
2023-02-19T21:09:47.579Z,83.31
2023-02-19T21:12:15.183Z,82.72
2023-02-19T21:14:43.318Z,82.90
2023-02-19T21:17:12.380Z,82.27
2023-02-19T21:19:39.991Z,83.89
2023-02-19T21:22:07.676Z,82.76
2023-02-19T21:24:35.256Z,83.66
2023-02-19T21:27:02.952Z,83.83
2023-02-19T21:29:30.682Z,84.51
2023-02-19T21:31:58.866Z,84.89
2023-02-19T21:34:29.862Z,84.90
2023-02-19T21:36:57.832Z,84.79
2023-02-19T21:39:27.456Z,84.30
2023-02-19T21:41:55.603Z,83.06
2023-02-19T21:44:23.299Z,83.22
2023-02-19T21:46:53.791Z,83.75
2023-02-19T21:49:21.856Z,84.09
2023-02-19T21:51:50.881Z,82.65
2023-02-19T21:54:25.051Z,83.64
2023-02-19T21:56:53.095Z,82.84
2023-02-19T21:59:24.296Z,83.42
2023-02-19T22:01:51.974Z,83.25
2023-02-19T22:04:21.645Z,84.08
2023-02-19T22:06:51.421Z,82.68
2023-02-19T22:09:18.995Z,84.34
2023-02-19T22:11:46.600Z,84.03
2023-02-19T22:14:20.338Z,85.09
2023-02-19T22:16:48.699Z,84.93
2023-02-19T22:19:16.931Z,84.03
2023-02-19T22:21:45.524Z,85.76
2023-02-19T22:24:21.357Z,87.80
2023-02-19T22:26:50.807Z,86.14
2023-02-19T22:29:21.558Z,85.84
2023-02-19T22:31:49.419Z,85.40
2023-02-19T22:34:18.502Z,85.53
2023-02-19T22:36:49.377Z,86.37
2023-02-19T22:39:23.115Z,84.81
2023-02-19T22:41:51.469Z,85.13
2023-02-19T22:44:19.229Z,84.47
2023-02-19T22:46:49.252Z,86.43
2023-02-19T22:49:17.787Z,85.61
2023-02-19T22:51:51.625Z,85.46
2023-02-19T22:54:21.923Z,84.48
2023-02-19T22:56:49.703Z,85.17
2023-02-19T22:59:17.712Z,84.71
2023-02-19T23:01:45.326Z,84.59
2023-02-19T23:04:13.029Z,83.14
2023-02-19T23:06:43.188Z,84.35
2023-02-19T23:09:17.279Z,85.57
2023-02-19T23:11:46.999Z,85.28
2023-02-19T23:14:17.167Z,86.37
2023-02-19T23:16:44.970Z,84.72
2023-02-19T23:19:15.493Z,85.75
2023-02-19T23:21:45.275Z,86.10
2023-02-19T23:24:13.912Z,85.18
2023-02-19T23:26:43.704Z,84.89
2023-02-19T23:29:15.190Z,84.32
2023-02-19T23:31:42.957Z,83.82
2023-02-19T23:34:10.807Z,85.09
2023-02-19T23:36:41.942Z,83.72
2023-02-19T23:39:10.889Z,84.74
2023-02-19T23:41:38.722Z,84.46
2023-02-19T23:44:06.809Z,84.05
2023-02-19T23:46:35.846Z,85.87
2023-02-19T23:49:03.517Z,85.49
2023-02-19T23:51:31.093Z,84.89
2023-02-19T23:53:58.733Z,84.87
2023-02-19T23:56:28.135Z,86.13
2023-02-19T23:58:55.993Z,85.68
